Time;durP1;ratioP1;P1;durP2;ratioP2;P2;SDS_P1;SDS_P2;PMS_P1;PMS_P2;Temp;Humidity;BMP_temperature;BMP_pressure;BME280_temperature;BME280_humidity;BME280_pressure;Samples;Min_cycle;Max_cycle;Signal;HPM_P1;HPM_P2
2023/01/30 00:00:28;;;;;;;11.07;8.88;;;3.50;99.90;;;;;;5018302;28;20106;-71
2023/01/30 00:02:54;;;;;;;9.75;8.75;;;3.50;99.90;;;;;;5016339;28;20031;-71
2023/01/30 00:05:20;;;;;;;9.18;7.63;;;3.50;99.90;;;;;;5018479;28;20014;-71
2023/01/30 00:07:46;;;;;;;13.10;9.68;;;3.50;99.90;;;;;;5015274;28;20041;-71
2023/01/30 00:10:12;;;;;;;13.13;10.38;;;3.50;99.90;;;;;;5018184;28;20018;-72
2023/01/30 00:12:38;;;;;;;16.65;11.75;;;3.50;99.90;;;;;;5016344;28;20063;-72
2023/01/30 00:15:05;;;;;;;14.88;10.93;;;3.50;99.90;;;;;;5010885;28;20026;-72
2023/01/30 00:17:30;;;;;;;15.60;11.23;;;3.50;99.90;;;;;;5014044;28;20026;-72
2023/01/30 00:19:56;;;;;;;14.52;10.85;;;3.50;99.90;;;;;;5013013;28;20494;-71
2023/01/30 00:22:22;;;;;;;16.20;11.73;;;3.40;99.90;;;;;;5016421;28;20113;-72
2023/01/30 00:24:47;;;;;;;15.05;11.15;;;3.50;99.90;;;;;;5014041;28;20022;-71
2023/01/30 00:27:13;;;;;;;15.65;12.00;;;3.50;99.90;;;;;;5017101;28;20092;-71
2023/01/30 00:29:39;;;;;;;15.82;11.25;;;3.40;99.90;;;;;;5014832;28;20026;-71
2023/01/30 00:32:05;;;;;;;14.02;9.63;;;3.40;99.90;;;;;;5018013;28;20018;-71
2023/01/30 00:34:30;;;;;;;13.95;9.75;;;3.50;99.90;;;;;;5013481;28;20560;-72
2023/01/30 00:36:56;;;;;;;14.30;10.77;;;3.40;99.90;;;;;;5018959;28;20437;-72
2023/01/30 00:39:22;;;;;;;14.43;11.00;;;3.40;99.90;;;;;;5017107;28;20393;-71
2023/01/30 00:47:16;;;;;;;16.40;12.43;;;3.40;99.90;;;;;;5016787;28;20057;-72
2023/01/30 00:49:41;;;;;;;14.63;11.43;;;3.40;99.90;;;;;;5014803;28;20022;-72
2023/01/30 00:52:07;;;;;;;14.52;11.40;;;3.40;99.90;;;;;;5017537;28;20045;-71
2023/01/30 00:54:33;;;;;;;14.98;10.68;;;3.40;99.90;;;;;;5012914;28;20206;-71
2023/01/30 00:56:59;;;;;;;15.75;11.35;;;3.40;99.90;;;;;;5018059;28;20052;-72
2023/01/30 00:59:26;;;;;;;17.17;12.13;;;3.40;99.90;;;;;;5013837;28;20101;-71
2023/01/30 01:01:51;;;;;;;16.98;11.70;;;3.40;99.90;;;;;;5018439;28;20571;-71
2023/01/30 01:04:17;;;;;;;17.58;12.50;;;3.40;99.90;;;;;;5014126;28;20026;-72
2023/01/30 01:06:43;;;;;;;16.80;12.77;;;3.40;99.90;;;;;;5017273;28;20076;-72
2023/01/30 01:09:08;;;;;;;16.25;11.75;;;3.40;99.90;;;;;;5012328;28;20425;-72
2023/01/30 01:11:35;;;;;;;15.32;11.02;;;3.40;99.90;;;;;;5016179;28;20477;-72
2023/01/30 01:14:02;;;;;;;15.65;11.32;;;3.40;99.90;;;;;;5008535;28;20043;-72
2023/01/30 01:16:29;;;;;;;14.50;11.65;;;3.40;99.90;;;;;;5016784;28;20088;-72
2023/01/30 01:18:55;;;;;;;16.17;11.63;;;3.40;99.90;;;;;;5009472;28;20026;-72
2023/01/30 01:21:21;;;;;;;18.15;12.77;;;3.40;99.90;;;;;;5018119;28;20033;-72
2023/01/30 01:23:52;;;;;;;16.40;12.18;;;3.40;99.90;;;;;;5009939;28;20033;-72
2023/01/30 01:26:18;;;;;;;12.27;11.05;;;3.40;99.90;;;;;;5017850;28;20394;-72
2023/01/30 01:28:44;;;;;;;15.15;11.02;;;3.40;99.90;;;;;;5012156;28;20037;-72
2023/01/30 01:31:12;;;;;;;13.65;10.45;;;3.40;99.90;;;;;;5016740;28;20034;-72
2023/01/30 01:33:38;;;;;;;15.38;11.27;;;3.40;99.90;;;;;;5011608;28;20032;-72
2023/01/30 01:36:04;;;;;;;12.45;10.38;;;3.40;99.90;;;;;;5018144;28;20468;-72
2023/01/30 01:38:30;;;;;;;14.75;11.13;;;3.40;99.90;;;;;;5014726;28;20053;-72
2023/01/30 01:41:01;;;;;;;13.68;10.77;;;3.40;99.90;;;;;;5017845;28;20041;-72
2023/01/30 01:43:30;;;;;;;12.75;11.45;;;3.40;99.90;;;;;;5011118;28;20030;-72
2023/01/30 01:46:03;;;;;;;13.93;11.85;;;3.40;99.90;;;;;;5016612;28;20026;-72
2023/01/30 01:48:36;;;;;;;13.00;11.25;;;3.40;99.90;;;;;;5009937;28;20140;-72
2023/01/30 01:51:16;;;;;;;12.90;11.38;;;3.40;99.90;;;;;;5017765;28;20034;-72
2023/01/30 01:53:47;;;;;;;14.25;11.35;;;3.40;99.90;;;;;;5012190;28;20033;-72
2023/01/30 01:56:16;;;;;;;13.98;11.85;;;3.40;99.90;;;;;;5015154;28;20033;-72
2023/01/30 01:58:50;;;;;;;14.15;11.20;;;3.40;99.90;;;;;;5015442;28;20100;-72
2023/01/30 02:01:15;;;;;;;12.93;11.63;;;3.40;99.90;;;;;;5013368;28;20157;-72
2023/01/30 02:03:46;;;;;;;14.32;11.70;;;3.40;99.90;;;;;;5015264;28;20061;-72
2023/01/30 02:06:14;;;;;;;13.57;12.15;;;3.40;99.90;;;;;;5017104;28;20080;-72
2023/01/30 02:08:46;;;;;;;12.77;10.93;;;3.40;99.90;;;;;;5014695;28;20118;-72
2023/01/30 02:11:18;;;;;;;14.82;11.18;;;3.40;99.90;;;;;;5015107;28;20108;-72
2023/01/30 02:13:45;;;;;;;14.20;11.40;;;3.40;99.90;;;;;;5011059;28;20034;-72
2023/01/30 02:16:11;;;;;;;14.10;11.40;;;3.40;99.90;;;;;;5014894;28;20495;-73
2023/01/30 02:18:40;;;;;;;16.23;12.93;;;3.40;99.90;;;;;;5008924;28;20048;-72
2023/01/30 02:21:27;;;;;;;15.02;11.77;;;3.40;99.90;;;;;;5016785;28;20022;-72
2023/01/30 02:24:20;;;;;;;16.05;12.95;;;3.40;99.90;;;;;;5010887;28;20030;-72
2023/01/30 02:26:54;;;;;;;14.93;11.93;;;3.40;99.90;;;;;;5010449;28;20427;-72
2023/01/30 02:29:51;;;;;;;15.35;12.02;;;3.40;99.90;;;;;;5010308;28;20076;-72
2023/01/30 02:32:22;;;;;;;13.68;11.32;;;3.40;99.90;;;;;;5015618;28;20058;-72
2023/01/30 02:35:12;;;;;;;15.57;11.80;;;3.40;99.90;;;;;;5014091;28;20022;-72
2023/01/30 02:37:48;;;;;;;16.17;12.17;;;3.30;99.90;;;;;;5028412;28;20121;-72
2023/01/30 02:40:29;;;;;;;15.00;11.75;;;3.30;99.90;;;;;;5014915;28;20264;-72
2023/01/30 02:43:30;;;;;;;;;;;3.30;99.90;;;;;;5012381;28;20037;-73
2023/01/30 02:46:13;;;;;;;12.10;10.77;;;3.30;99.90;;;;;;5029660;28;19915;-73
2023/01/30 02:48:45;;;;;;;13.80;11.98;;;3.30;99.90;;;;;;5009176;28;20038;-72
2023/01/30 02:51:18;;;;;;;15.30;11.57;;;3.30;99.90;;;;;;5015560;28;20490;-73
2023/01/30 02:53:47;;;;;;;24.77;11.63;;;3.30;99.90;;;;;;5012347;28;20030;-73
2023/01/30 02:56:12;;;;;;;13.50;11.48;;;3.30;99.90;;;;;;5016965;28;20026;-72
2023/01/30 02:58:45;;;;;;;13.80;11.63;;;3.30;99.90;;;;;;5014450;28;20032;-73
2023/01/30 03:01:29;;;;;;;12.95;11.07;;;3.30;99.90;;;;;;5015009;28;20046;-72
2023/01/30 03:04:17;;;;;;;12.32;11.10;;;3.30;99.90;;;;;;5014411;28;20174;-72
2023/01/30 03:07:04;;;;;;;13.60;11.00;;;3.30;99.90;;;;;;5030160;28;20018;-72
2023/01/30 03:09:35;;;;;;;13.55;10.55;;;3.30;99.90;;;;;;5010957;28;20514;-73
2023/01/30 03:12:16;;;;;;;12.10;10.68;;;3.30;99.90;;;;;;5016503;28;20021;-72
2023/01/30 03:15:08;;;;;;;11.45;10.23;;;3.20;99.90;;;;;;5022559;28;20427;-72
2023/01/30 03:17:35;;;;;;;10.68;9.55;;;3.30;99.90;;;;;;5046498;28;20037;-73
2023/01/30 03:20:01;;;;;;;11.10;9.90;;;3.20;99.90;;;;;;5014488;28;20022;-72
2023/01/30 03:22:27;;;;;;;20.20;11.63;;;3.30;99.90;;;;;;5018577;28;20516;-72
2023/01/30 03:24:53;;;;;;;11.23;9.45;;;3.30;99.90;;;;;;5015466;28;20026;-72
2023/01/30 03:27:20;;;;;;;10.57;9.48;;;3.20;99.90;;;;;;5018885;28;20018;-72
2023/01/30 03:29:46;;;;;;;10.20;9.32;;;3.20;99.90;;;;;;5016070;28;20018;-72
2023/01/30 03:32:11;;;;;;;10.20;9.18;;;3.20;99.90;;;;;;5017632;28;20395;-72
2023/01/30 03:34:37;;;;;;;10.32;8.55;;;3.20;99.90;;;;;;5015612;28;20026;-72
2023/01/30 03:37:04;;;;;;;9.90;8.80;;;3.20;99.90;;;;;;5019463;28;20030;-72
2023/01/30 03:39:30;;;;;;;9.82;8.75;;;3.30;99.90;;;;;;5015937;28;20029;-72
2023/01/30 03:41:55;;;;;;;9.20;8.30;;;3.30;99.90;;;;;;5019681;28;20026;-72
2023/01/30 03:44:21;;;;;;;9.77;8.77;;;3.30;99.90;;;;;;5013511;28;20030;-73
2023/01/30 03:46:47;;;;;;;10.38;9.38;;;3.30;99.90;;;;;;5019660;28;20501;-72
2023/01/30 03:49:13;;;;;;;10.82;8.95;;;3.30;99.90;;;;;;5013160;28;20022;-72
2023/01/30 03:51:38;;;;;;;10.38;9.00;;;3.30;99.90;;;;;;5019717;28;20049;-73
2023/01/30 03:54:04;;;;;;;9.93;8.68;;;3.20;99.90;;;;;;5016094;28;20029;-73
2023/01/30 03:56:30;;;;;;;10.18;9.02;;;3.20;99.90;;;;;;5019819;28;20034;-73
2023/01/30 03:58:56;;;;;;;9.45;8.55;;;3.20;99.90;;;;;;5013162;28;20030;-72
2023/01/30 04:01:22;;;;;;;11.27;8.95;;;3.30;99.90;;;;;;5017806;28;20525;-73
2023/01/30 04:03:47;;;;;;;9.30;8.40;;;3.30;99.90;;;;;;5017902;28;20041;-72
2023/01/30 04:06:13;;;;;;;9.48;8.57;;;3.20;99.90;;;;;;5018548;28;20032;-72
2023/01/30 04:08:39;;;;;;;8.85;8.05;;;3.30;99.90;;;;;;5015664;28;20080;-72
2023/01/30 04:11:04;;;;;;;9.02;8.10;;;3.20;99.90;;;;;;5017336;28;20022;-73
2023/01/30 04:13:30;;;;;;;9.13;8.23;;;3.20;99.90;;;;;;5014351;28;20466;-73
2023/01/30 04:16:15;;;;;;;9.10;8.20;;;3.20;99.90;;;;;;5015520;28;20030;-72
2023/01/30 04:18:41;;;;;;;8.55;7.75;;;3.20;99.90;;;;;;5012055;28;20030;-72
2023/01/30 04:21:06;;;;;;;9.00;8.10;;;3.20;99.90;;;;;;5018508;28;20379;-72
2023/01/30 04:23:32;;;;;;;9.18;8.38;;;3.20;99.90;;;;;;5012637;28;20552;-73
2023/01/30 04:25:58;;;;;;;8.63;7.85;;;3.20;99.90;;;;;;5018642;28;20083;-72
2023/01/30 04:28:23;;;;;;;9.35;8.43;;;3.20;99.90;;;;;;5013098;28;20081;-73
2023/01/30 04:30:52;;;;;;;8.68;7.72;;;3.20;99.90;;;;;;5018040;28;20071;-72
2023/01/30 04:33:17;;;;;;;8.15;7.18;;;3.20;99.90;;;;;;5011330;28;20048;-72
2023/01/30 04:35:57;;;;;;;8.55;7.75;;;3.20;99.90;;;;;;5018812;28;20018;-72
2023/01/30 04:38:24;;;;;;;9.48;8.65;;;3.20;99.90;;;;;;5012505;28;20460;-72
2023/01/30 04:40:51;;;;;;;9.30;8.35;;;3.20;99.90;;;;;;5019025;28;20014;-72
2023/01/30 04:43:18;;;;;;;8.93;8.13;;;3.20;99.90;;;;;;5010957;28;20109;-72
2023/01/30 04:45:44;;;;;;;8.35;7.55;;;3.20;99.90;;;;;;5018241;28;20406;-72
2023/01/30 04:48:10;;;;;;;11.25;7.53;;;3.20;99.90;;;;;;5012830;28;20040;-72
2023/01/30 04:50:36;;;;;;;7.53;6.82;;;3.20;99.90;;;;;;5017969;28;20045;-72
2023/01/30 04:53:02;;;;;;;8.07;7.30;;;3.20;99.90;;;;;;5014404;28;20096;-72
2023/01/30 04:55:28;;;;;;;9.10;8.30;;;3.20;99.90;;;;;;5017052;28;20117;-72
2023/01/30 04:57:53;;;;;;;8.65;7.75;;;3.20;99.90;;;;;;5014441;28;20185;-73
2023/01/30 05:00:19;;;;;;;9.35;8.55;;;3.20;99.90;;;;;;5017204;28;20609;-72
2023/01/30 05:02:45;;;;;;;11.00;8.40;;;3.20;99.90;;;;;;5016118;28;20501;-72
2023/01/30 05:05:10;;;;;;;8.63;7.75;;;3.20;99.90;;;;;;5016959;28;20029;-73
2023/01/30 05:07:36;;;;;;;9.07;8.18;;;3.20;99.90;;;;;;5016008;28;20029;-72
2023/01/30 05:10:02;;;;;;;8.93;7.82;;;3.20;99.90;;;;;;5015852;28;20026;-72
2023/01/30 05:12:29;;;;;;;8.40;7.55;;;3.10;99.90;;;;;;5015671;28;20113;-73
2023/01/30 05:14:55;;;;;;;8.55;7.75;;;3.10;99.90;;;;;;5010350;28;20117;-72
2023/01/30 05:17:21;;;;;;;9.50;8.23;;;3.10;99.90;;;;;;5016692;28;20510;-72
2023/01/30 05:19:46;;;;;;;8.77;7.88;;;3.10;99.90;;;;;;5010587;28;20022;-72
2023/01/30 05:22:12;;;;;;;9.57;8.57;;;3.00;99.90;;;;;;5015724;28;20026;-73
2023/01/30 05:24:38;;;;;;;9.05;8.15;;;3.00;99.90;;;;;;5012728;28;20090;-72
2023/01/30 05:27:04;;;;;;;9.98;8.90;;;3.00;99.90;;;;;;5015989;28;20022;-73
2023/01/30 05:29:30;;;;;;;10.65;9.65;;;2.90;99.90;;;;;;5012309;28;20025;-72
2023/01/30 05:31:55;;;;;;;9.55;7.78;;;2.90;99.90;;;;;;5017771;28;20026;-73
2023/01/30 05:34:21;;;;;;;9.45;8.43;;;2.80;99.90;;;;;;5015904;28;20033;-72
2023/01/30 05:36:47;;;;;;;8.65;7.78;;;2.80;99.90;;;;;;5017988;28;20116;-72
2023/01/30 05:39:13;;;;;;;8.50;7.63;;;2.70;99.90;;;;;;5011478;28;20037;-73
2023/01/30 05:41:38;;;;;;;8.90;7.97;;;2.70;99.90;;;;;;5017348;28;20486;-72
2023/01/30 05:44:05;;;;;;;8.63;7.82;;;2.70;99.90;;;;;;5009681;28;20478;-72
2023/01/30 05:46:30;;;;;;;8.43;7.57;;;2.70;99.90;;;;;;5016092;28;20029;-72
2023/01/30 05:48:56;;;;;;;8.93;8.02;;;2.70;99.90;;;;;;5015701;28;20030;-72
2023/01/30 05:51:24;;;;;;;9.32;7.82;;;2.70;99.90;;;;;;5017424;28;20045;-72
2023/01/30 05:53:50;;;;;;;8.48;7.68;;;2.70;99.90;;;;;;5015066;28;20155;-72
2023/01/30 05:56:17;;;;;;;8.75;7.88;;;2.70;99.90;;;;;;5017473;28;20826;-72
2023/01/30 05:58:48;;;;;;;8.35;7.55;;;2.70;99.90;;;;;;5015471;28;20405;-71
2023/01/30 06:01:14;;;;;;;10.15;8.10;;;2.70;99.90;;;;;;5016016;28;20080;-72
2023/01/30 06:03:40;;;;;;;9.10;8.20;;;2.70;99.90;;;;;;5010904;28;20471;-72
2023/01/30 06:06:06;;;;;;;8.35;7.55;;;2.80;99.90;;;;;;5012983;28;20022;-72
2023/01/30 06:08:32;;;;;;;27.05;13.38;;;2.70;99.90;;;;;;5010385;28;20026;-72
2023/01/30 06:11:15;;;;;;;8.45;7.60;;;2.80;99.90;;;;;;5015930;28;20068;-71
2023/01/30 06:13:41;;;;;;;8.13;7.32;;;2.80;99.90;;;;;;5013202;28;20038;-71
2023/01/30 06:16:10;;;;;;;9.65;8.57;;;2.80;99.90;;;;;;5016841;28;20029;-72
2023/01/30 06:18:36;;;;;;;11.02;8.15;;;2.70;99.90;;;;;;5014335;28;20049;-72
2023/01/30 06:21:02;;;;;;;16.73;13.60;;;2.70;99.90;;;;;;5015479;28;20033;-72
2023/01/30 06:23:28;;;;;;;8.85;7.75;;;2.70;99.90;;;;;;5012128;28;20042;-71
2023/01/30 06:25:54;;;;;;;8.85;7.95;;;2.70;99.90;;;;;;5013249;28;20041;-72
2023/01/30 06:28:21;;;;;;;7.60;6.90;;;2.70;99.90;;;;;;5011427;28;20030;-72
2023/01/30 06:30:47;;;;;;;8.73;7.93;;;2.80;99.90;;;;;;5014230;28;20060;-72
2023/01/30 06:33:13;;;;;;;8.45;7.65;;;2.80;99.90;;;;;;5011036;28;20101;-73
2023/01/30 06:35:40;;;;;;;8.63;7.82;;;2.80;99.90;;;;;;5014365;28;20049;-72
2023/01/30 06:38:12;;;;;;;107.80;44.65;;;2.80;99.90;;;;;;5011323;28;20467;-72
2023/01/30 06:40:38;;;;;;;8.70;7.68;;;2.80;99.90;;;;;;5011837;28;20049;-72
2023/01/30 06:43:04;;;;;;;88.95;32.63;;;2.70;99.90;;;;;;5010964;28;20058;-71
2023/01/30 06:45:30;;;;;;;36.05;16.40;;;2.70;99.90;;;;;;5016258;28;20038;-73
2023/01/30 06:47:56;;;;;;;8.68;7.78;;;2.70;99.90;;;;;;5012083;28;20034;-73
2023/01/30 06:50:24;;;;;;;9.48;8.57;;;2.70;99.90;;;;;;5013717;28;20026;-73
2023/01/30 06:52:51;;;;;;;8.50;7.70;;;2.60;99.90;;;;;;5014248;28;20042;-73
2023/01/30 06:55:19;;;;;;;10.68;8.40;;;2.60;99.90;;;;;;5019306;28;20033;-73
2023/01/30 06:57:45;;;;;;;10.38;7.68;;;2.60;99.90;;;;;;5015874;28;20035;-73
2023/01/30 07:00:17;;;;;;;9.10;7.78;;;2.50;99.90;;;;;;5019597;28;20549;-73
2023/01/30 07:02:43;;;;;;;9.82;7.85;;;2.60;99.90;;;;;;5017309;28;20383;-73
2023/01/30 07:05:09;;;;;;;10.27;8.48;;;2.50;99.90;;;;;;5017182;28;20393;-74
2023/01/30 07:07:36;;;;;;;9.90;8.02;;;2.50;99.90;;;;;;5018636;28;20026;-73
2023/01/30 07:10:03;;;;;;;8.85;8.05;;;2.50;99.90;;;;;;5018224;28;20502;-73
2023/01/30 07:12:29;;;;;;;9.45;8.48;;;2.50;99.90;;;;;;5017433;28;20026;-73
2023/01/30 07:14:55;;;;;;;13.07;8.35;;;2.40;99.90;;;;;;5009263;28;20482;-73
2023/01/30 07:17:21;;;;;;;10.30;9.30;;;2.40;99.90;;;;;;5018383;28;20103;-73
2023/01/30 07:19:47;;;;;;;8.30;7.50;;;2.40;99.90;;;;;;5014703;28;20030;-73
2023/01/30 07:22:13;;;;;;;9.18;8.35;;;2.30;99.90;;;;;;5019514;28;20022;-73
2023/01/30 07:24:39;;;;;;;11.40;9.38;;;2.30;99.90;;;;;;5018953;28;20037;-73
2023/01/30 07:27:10;;;;;;;9.65;8.65;;;2.40;99.90;;;;;;5020306;28;20049;-73
2023/01/30 07:29:37;;;;;;;9.85;8.68;;;2.40;99.90;;;;;;5027021;28;20026;-73
2023/01/30 07:32:03;;;;;;;9.43;8.52;;;2.40;99.90;;;;;;5016054;28;20080;-74
2023/01/30 07:34:29;;;;;;;9.25;8.38;;;2.40;99.90;;;;;;5007704;28;20030;-74
2023/01/30 07:36:54;;;;;;;9.82;8.75;;;2.40;99.90;;;;;;5017149;28;20056;-75
2023/01/30 07:39:20;;;;;;;10.32;9.18;;;2.40;99.90;;;;;;5016515;28;20030;-74
2023/01/30 07:41:46;;;;;;;9.73;8.18;;;2.40;99.90;;;;;;5019074;28;20030;-74
2023/01/30 07:44:12;;;;;;;9.57;8.60;;;2.40;99.90;;;;;;5012115;28;20109;-74
2023/01/30 07:46:38;;;;;;;9.40;8.35;;;2.50;99.90;;;;;;5031967;28;20040;-74
2023/01/30 07:49:05;;;;;;;10.55;9.13;;;2.50;99.90;;;;;;5016804;28;20109;-74
2023/01/30 07:51:31;;;;;;;8.90;8.05;;;2.60;99.90;;;;;;5017446;28;20414;-74
2023/01/30 07:53:57;;;;;;;13.30;8.75;;;2.60;99.90;;;;;;5016914;28;20124;-74
2023/01/30 07:56:23;;;;;;;9.70;8.60;;;2.70;99.90;;;;;;5018171;28;20076;-74
2023/01/30 07:58:50;;;;;;;10.13;9.07;;;2.70;99.90;;;;;;5015741;28;20045;-74
2023/01/30 08:01:16;;;;;;;10.77;8.88;;;2.70;99.90;;;;;;5018186;28;20022;-75
2023/01/30 08:03:44;;;;;;;11.35;8.90;;;2.70;99.90;;;;;;5015983;28;20025;-75
2023/01/30 08:06:11;;;;;;;11.38;8.98;;;2.70;99.90;;;;;;5016636;28;20033;-75
2023/01/30 08:08:37;;;;;;;9.95;8.70;;;2.70;99.90;;;;;;5011566;28;20045;-75
2023/01/30 08:11:03;;;;;;;9.05;8.25;;;2.70;99.90;;;;;;5018629;28;20018;-73
2023/01/30 08:13:28;;;;;;;9.77;8.77;;;2.70;99.90;;;;;;5011925;28;20034;-73
2023/01/30 08:15:54;;;;;;;10.70;8.35;;;2.70;99.90;;;;;;5017393;28;20497;-75
2023/01/30 08:18:19;;;;;;;11.20;9.50;;;2.70;99.90;;;;;;5016125;28;20506;-75
2023/01/30 08:20:45;;;;;;;12.38;11.05;;;2.70;99.90;;;;;;5017989;28;20026;-75
2023/01/30 08:23:11;;;;;;;19.08;14.27;;;2.70;99.90;;;;;;5013519;28;20023;-75
2023/01/30 08:25:37;;;;;;;10.55;8.77;;;2.70;99.90;;;;;;5017543;28;20101;-75
2023/01/30 08:28:03;;;;;;;11.50;9.77;;;2.70;99.90;;;;;;5016607;28;20061;-71
2023/01/30 08:30:29;;;;;;;10.80;9.60;;;2.70;99.90;;;;;;5015996;28;20026;-72
2023/01/30 08:32:56;;;;;;;10.05;9.05;;;2.70;99.90;;;;;;5015525;28;20026;-72
2023/01/30 08:35:22;;;;;;;10.93;9.18;;;2.70;99.90;;;;;;5017179;28;20025;-72
2023/01/30 08:37:48;;;;;;;14.45;9.98;;;2.70;99.90;;;;;;5014098;28;20065;-72
2023/01/30 08:40:14;;;;;;;12.65;9.70;;;2.80;99.90;;;;;;5016770;28;20072;-72
2023/01/30 08:42:42;;;;;;;10.45;8.95;;;2.90;99.90;;;;;;5015694;28;20053;-72
2023/01/30 08:45:08;;;;;;;11.82;9.57;;;3.00;99.90;;;;;;5016994;28;20124;-72
2023/01/30 08:47:34;;;;;;;12.63;10.05;;;3.10;99.90;;;;;;5013517;28;20040;-72
2023/01/30 08:50:00;;;;;;;11.55;9.52;;;3.10;99.90;;;;;;5012313;28;20100;-72
2023/01/30 08:52:26;;;;;;;10.40;9.25;;;3.10;99.90;;;;;;5009907;28;20510;-72
2023/01/30 08:54:51;;;;;;;10.68;9.57;;;3.00;99.90;;;;;;5016951;28;20034;-71
2023/01/30 08:57:17;;;;;;;13.80;10.70;;;3.00;99.90;;;;;;5016158;28;20030;-72
2023/01/30 08:59:43;;;;;;;10.48;9.38;;;2.90;99.90;;;;;;5016579;28;20118;-72
2023/01/30 09:02:10;;;;;;;10.10;9.02;;;3.00;99.90;;;;;;5016652;28;20053;-73
2023/01/30 09:04:36;;;;;;;10.57;9.32;;;3.00;99.90;;;;;;5010579;28;20054;-72
2023/01/30 09:07:01;;;;;;;11.27;9.63;;;3.10;99.90;;;;;;5013270;28;20474;-70
2023/01/30 09:09:28;;;;;;;13.93;9.35;;;3.10;99.90;;;;;;5013084;28;20017;-71
2023/01/30 09:11:54;;;;;;;10.40;9.40;;;3.20;99.90;;;;;;5016040;28;20034;-71
2023/01/30 09:14:20;;;;;;;12.18;10.10;;;3.30;99.90;;;;;;5015199;28;20037;-71
2023/01/30 09:16:54;;;;;;;11.15;10.02;;;3.40;99.90;;;;;;5014205;28;20054;-71
2023/01/30 09:19:25;;;;;;;11.88;10.52;;;3.50;99.90;;;;;;5015125;28;20367;-74
2023/01/30 09:21:51;;;;;;;12.80;9.10;;;3.50;99.90;;;;;;5016924;28;20116;-71
2023/01/30 09:24:18;;;;;;;12.73;9.73;;;3.60;99.90;;;;;;5015036;28;20101;-71
2023/01/30 09:26:44;;;;;;;9.43;8.45;;;3.60;99.90;;;;;;5016396;28;20057;-71
2023/01/30 09:29:11;;;;;;;10.55;9.45;;;3.70;99.90;;;;;;5014269;28;20117;-71
2023/01/30 09:31:37;;;;;;;10.95;9.50;;;3.70;99.90;;;;;;5016996;28;20029;-71
2023/01/30 09:34:03;;;;;;;10.90;9.63;;;3.70;99.90;;;;;;5014998;28;20060;-70
2023/01/30 09:36:28;;;;;;;11.77;8.55;;;3.80;99.90;;;;;;5016228;28;20034;-71
2023/01/30 09:38:54;;;;;;;12.13;6.72;;;3.80;99.90;;;;;;5013876;28;20494;-72
2023/01/30 09:41:47;;;;;;;9.10;7.97;;;3.90;99.90;;;;;;5016799;28;20042;-71
2023/01/30 09:44:50;;;;;;;9.40;8.50;;;4.00;99.90;;;;;;5014769;28;20414;-71
2023/01/30 09:47:37;;;;;;;10.40;8.50;;;4.00;99.90;;;;;;5014537;28;20538;-74
2023/01/30 09:50:40;;;;;;;8.50;7.80;;;4.10;99.90;;;;;;5016504;28;20026;-75
2023/01/30 09:53:41;;;;;;;9.40;8.15;;;4.20;99.90;;;;;;5008007;28;20104;-74
2023/01/30 09:56:07;;;;;;;9.80;8.68;;;4.30;99.90;;;;;;5012141;28;20030;-73
2023/01/30 09:58:45;;;;;;;9.82;8.82;;;4.50;99.90;;;;;;5013601;28;20034;-73
2023/01/30 10:01:26;;;;;;;8.85;7.93;;;4.60;99.90;;;;;;5015140;28;20018;-74
2023/01/30 10:04:10;;;;;;;9.80;8.40;;;4.70;99.90;;;;;;5013712;28;20069;-73
2023/01/30 10:06:44;;;;;;;10.05;8.75;;;4.80;99.90;;;;;;5013887;28;20524;-74
2023/01/30 10:09:45;;;;;;;9.20;8.30;;;4.60;99.90;;;;;;5011846;28;20060;-74
2023/01/30 10:12:32;;;;;;;9.82;8.52;;;4.50;99.90;;;;;;5013353;28;20026;-73
2023/01/30 10:14:58;;;;;;;9.70;8.05;;;4.40;99.90;;;;;;5014165;28;20086;-74
2023/01/30 10:17:46;;;;;;;9.32;8.38;;;4.30;99.90;;;;;;5011362;28;20572;-73
2023/01/30 10:20:36;;;;;;;8.80;7.60;;;4.30;99.90;;;;;;5012104;28;20030;-74
2023/01/30 10:23:28;;;;;;;11.87;9.40;;;4.20;99.90;;;;;;5014386;28;20048;-70
2023/01/30 10:25:57;;;;;;;11.82;8.88;;;4.30;99.90;;;;;;5012103;28;20057;-71
2023/01/30 10:28:41;;;;;;;11.38;9.45;;;4.40;99.90;;;;;;5011435;28;20521;-71
2023/01/30 10:31:15;;;;;;;9.27;8.38;;;4.50;99.90;;;;;;5015166;28;20482;-71
2023/01/30 10:33:58;;;;;;;11.02;9.23;;;4.50;99.90;;;;;;5014232;28;20545;-71
2023/01/30 10:36:39;;;;;;;11.05;9.10;;;4.50;99.90;;;;;;5014359;28;20490;-71
2023/01/30 10:39:18;;;;;;;;;;;4.50;99.90;;;;;;5012087;28;20017;-71
2023/01/30 10:41:54;;;;;;;13.00;10.30;;;4.50;99.90;;;;;;5013992;28;20044;-71
2023/01/30 10:44:22;;;;;;;12.65;10.05;;;4.60;99.90;;;;;;5013841;28;20033;-72
2023/01/30 10:47:19;;;;;;;11.05;9.10;;;4.70;99.90;;;;;;5014695;28;20021;-71
2023/01/30 10:49:54;;;;;;;8.70;7.78;;;4.60;99.90;;;;;;5012470;28;20031;-72
2023/01/30 10:52:55;;;;;;;10.27;9.23;;;4.60;99.90;;;;;;5013450;28;20581;-71
2023/01/30 10:55:59;;;;;;;10.90;9.32;;;4.60;99.90;;;;;;5013509;28;20041;-71
2023/01/30 10:58:38;;;;;;;11.10;9.55;;;4.60;99.90;;;;;;5015616;28;20061;-72
2023/01/30 11:01:06;;;;;;;9.80;8.35;;;4.70;99.90;;;;;;5015794;28;20456;-72
2023/01/30 11:03:45;;;;;;;10.02;8.98;;;4.70;99.90;;;;;;5011916;28;20402;-71
2023/01/30 11:06:12;;;;;;;10.75;8.35;;;4.60;99.90;;;;;;5012162;28;20033;-72
2023/01/30 11:08:38;;;;;;;11.18;9.38;;;4.70;99.90;;;;;;5012356;28;20096;-72
2023/01/30 11:11:22;;;;;;;10.32;9.05;;;4.80;99.90;;;;;;5015884;28;20038;-71
2023/01/30 11:13:48;;;;;;;9.98;8.95;;;4.80;99.90;;;;;;5012090;28;20056;-72
2023/01/30 11:16:14;;;;;;;10.00;8.80;;;4.90;99.90;;;;;;5015397;28;20456;-71
2023/01/30 11:18:46;;;;;;;11.73;9.45;;;5.00;99.90;;;;;;5012557;28;20052;-71
2023/01/30 11:21:20;;;;;;;10.68;9.57;;;5.00;99.90;;;;;;5015190;28;20063;-71
2023/01/30 11:23:46;;;;;;;10.73;9.63;;;5.00;99.90;;;;;;5011836;28;20035;-72
2023/01/30 11:26:29;;;;;;;9.00;8.10;;;5.00;99.90;;;;;;5012781;28;20033;-72
2023/01/30 11:28:55;;;;;;;9.82;8.18;;;5.10;99.90;;;;;;5012683;28;20029;-72
2023/01/30 11:31:24;;;;;;;34.33;18.02;;;5.10;99.90;;;;;;5012839;28;20026;-70
2023/01/30 11:34:04;;;;;;;10.63;9.13;;;5.10;99.90;;;;;;5013710;28;20032;-70
2023/01/30 11:36:32;;;;;;;8.90;8.00;;;5.10;99.90;;;;;;5014051;28;20402;-71
2023/01/30 11:39:11;;;;;;;9.48;8.48;;;5.00;99.90;;;;;;5014236;28;20308;-71
2023/01/30 11:41:54;;;;;;;9.48;8.27;;;5.00;99.90;;;;;;5018505;28;20095;-70
2023/01/30 11:44:34;;;;;;;11.40;9.73;;;5.10;99.90;;;;;;5015616;28;20104;-70
2023/01/30 11:47:21;;;;;;;20.25;12.63;;;5.30;99.90;;;;;;5018015;28;20025;-70
2023/01/30 11:49:51;;;;;;;10.52;8.80;;;5.50;99.90;;;;;;5018454;28;20089;-70
2023/01/30 11:52:23;;;;;;;;;;;5.70;99.90;;;;;;5017731;28;20096;-70
2023/01/30 11:54:51;;;;;;;9.75;8.45;;;5.90;99.90;;;;;;5018233;28;20305;-69
2023/01/30 11:57:18;;;;;;;10.15;8.75;;;6.10;99.90;;;;;;5016837;28;20057;-69
2023/01/30 11:59:57;;;;;;;8.55;7.68;;;6.30;99.90;;;;;;5017312;28;20041;-70
2023/01/30 12:02:37;;;;;;;9.95;8.88;;;6.50;99.90;;;;;;5014843;28;20028;-69
2023/01/30 12:05:33;;;;;;;10.23;8.75;;;6.40;99.90;;;;;;5013626;28;20542;-69
2023/01/30 12:08:22;;;;;;;9.32;8.38;;;6.30;99.90;;;;;;5012102;28;20046;-69
2023/01/30 12:11:00;;;;;;;10.02;8.40;;;6.10;99.90;;;;;;5016738;28;20394;-71
2023/01/30 12:13:42;;;;;;;10.07;8.23;;;6.00;99.90;;;;;;5014949;28;20113;-69
2023/01/30 12:16:20;;;;;;;11.13;8.77;;;5.90;99.90;;;;;;5015695;28;20022;-70
2023/01/30 12:18:58;;;;;;;9.95;8.20;;;5.80;99.90;;;;;;5016063;28;20033;-69
2023/01/30 12:21:55;;;;;;;11.70;9.52;;;5.90;99.90;;;;;;5016987;28;20026;-69
2023/01/30 12:24:45;;;;;;;10.02;8.82;;;6.10;99.90;;;;;;5016489;28;20088;-69
2023/01/30 12:27:41;;;;;;;10.90;9.43;;;6.10;99.90;;;;;;5013036;28;20033;-69
2023/01/30 12:30:32;;;;;;;10.60;8.73;;;6.00;99.90;;;;;;5013595;28;20026;-69
2023/01/30 12:33:01;;;;;;;12.73;8.60;;;5.80;99.90;;;;;;5013763;28;20110;-70
2023/01/30 12:35:36;;;;;;;11.25;9.88;;;5.70;99.90;;;;;;5017912;28;20582;-69
2023/01/30 12:38:16;;;;;;;9.50;8.50;;;5.80;99.90;;;;;;5014532;28;20037;-69
2023/01/30 12:40:52;;;;;;;10.63;9.23;;;5.90;99.90;;;;;;5013185;28;20026;-70
2023/01/30 12:43:27;;;;;;;10.43;9.32;;;6.10;99.90;;;;;;5012141;28;20062;-70
2023/01/30 12:46:08;;;;;;;12.20;9.10;;;6.00;99.90;;;;;;5014366;28;20033;-69
2023/01/30 12:48:48;;;;;;;;;;;5.90;99.90;;;;;;5013213;28;20022;-70
2023/01/30 12:51:13;;;;;;;10.55;8.05;;;6.00;99.90;;;;;;5045394;28;19968;-69
2023/01/30 12:54:04;;;;;;;9.82;8.70;;;5.90;99.90;;;;;;5014641;28;20033;-70
2023/01/30 12:56:49;;;;;;;11.55;9.93;;;6.00;99.90;;;;;;5015428;28;20033;-69
2023/01/30 12:59:17;;;;;;;9.68;8.52;;;6.00;99.90;;;;;;5012832;28;20025;-69
2023/01/30 13:01:55;;;;;;;10.93;8.65;;;6.10;99.90;;;;;;5014872;28;20017;-69
2023/01/30 13:04:31;;;;;;;12.25;9.60;;;6.20;99.90;;;;;;5010052;28;20030;-69
2023/01/30 13:07:15;;;;;;;13.35;9.25;;;6.10;99.90;;;;;;5015966;28;20109;-69
2023/01/30 13:09:46;;;;;;;13.68;10.32;;;5.90;99.90;;;;;;5011948;28;20019;-69
2023/01/30 13:12:12;;;;;;;10.70;9.07;;;5.90;99.90;;;;;;5013165;28;20026;-69